sensor_id;sensor_type;location;lat;lon;timestamp;P1;durP1;ratioP1;P2;durP2;ratioP2
3054;SDS011;1537;52.018;8.542;2023-04-25T00:02:07;21.83;;;8.47;;
3054;SDS011;1537;52.018;8.542;2023-04-25T00:05:31;12.93;;;7.17;;
3054;SDS011;1537;52.018;8.542;2023-04-25T00:08:55;14.30;;;6.90;;
3054;SDS011;1537;52.018;8.542;2023-04-25T00:12:19;21.30;;;6.70;;
3054;SDS011;1537;52.018;8.542;2023-04-25T00:15:46;11.67;;;6.17;;
3054;SDS011;1537;52.018;8.542;2023-04-25T00:19:10;13.67;;;7.30;;
3054;SDS011;1537;52.018;8.542;2023-04-25T00:22:36;15.60;;;7.70;;
3054;SDS011;1537;52.018;8.542;2023-04-25T00:26:00;17.53;;;7.83;;
3054;SDS011;1537;52.018;8.542;2023-04-25T00:29:24;13.20;;;6.37;;
3054;SDS011;1537;52.018;8.542;2023-04-25T00:32:49;15.73;;;6.80;;
3054;SDS011;1537;52.018;8.542;2023-04-25T00:36:13;17.27;;;6.67;;
3054;SDS011;1537;52.018;8.542;2023-04-25T00:39:37;16.73;;;7.67;;
3054;SDS011;1537;52.018;8.542;2023-04-25T00:43:01;20.60;;;7.13;;
3054;SDS011;1537;52.018;8.542;2023-04-25T00:46:25;13.73;;;7.70;;
3054;SDS011;1537;52.018;8.542;2023-04-25T00:49:50;19.83;;;7.20;;
3054;SDS011;1537;52.018;8.542;2023-04-25T00:53:15;17.37;;;7.00;;
3054;SDS011;1537;52.018;8.542;2023-04-25T00:56:39;22.53;;;8.00;;
3054;SDS011;1537;52.018;8.542;2023-04-25T01:00:04;16.87;;;8.30;;
3054;SDS011;1537;52.018;8.542;2023-04-25T01:03:29;19.17;;;7.13;;
3054;SDS011;1537;52.018;8.542;2023-04-25T01:06:59;18.63;;;8.07;;
3054;SDS011;1537;52.018;8.542;2023-04-25T01:10:24;17.80;;;9.17;;
3054;SDS011;1537;52.018;8.542;2023-04-25T01:13:48;12.70;;;6.20;;
3054;SDS011;1537;52.018;8.542;2023-04-25T01:17:13;18.93;;;8.40;;
3054;SDS011;1537;52.018;8.542;2023-04-25T01:20:37;19.10;;;7.60;;
3054;SDS011;1537;52.018;8.542;2023-04-25T01:24:04;21.57;;;7.20;;
3054;SDS011;1537;52.018;8.542;2023-04-25T01:27:29;30.03;;;9.40;;
3054;SDS011;1537;52.018;8.542;2023-04-25T01:30:52;11.20;;;7.00;;
3054;SDS011;1537;52.018;8.542;2023-04-25T01:34:17;13.33;;;7.90;;
3054;SDS011;1537;52.018;8.542;2023-04-25T01:37:41;16.40;;;7.00;;
3054;SDS011;1537;52.018;8.542;2023-04-25T01:41:08;19.63;;;7.90;;
3054;SDS011;1537;52.018;8.542;2023-04-25T01:44:31;11.13;;;7.00;;
3054;SDS011;1537;52.018;8.542;2023-04-25T01:47:55;13.13;;;6.77;;
3054;SDS011;1537;52.018;8.542;2023-04-25T01:51:21;16.37;;;8.83;;
3054;SDS011;1537;52.018;8.542;2023-04-25T01:54:45;23.87;;;8.17;;
3054;SDS011;1537;52.018;8.542;2023-04-25T01:58:11;14.30;;;6.93;;
3054;SDS011;1537;52.018;8.542;2023-04-25T02:01:51;15.63;;;7.20;;
3054;SDS011;1537;52.018;8.542;2023-04-25T02:05:21;14.03;;;7.50;;
3054;SDS011;1537;52.018;8.542;2023-04-25T02:08:44;15.37;;;7.50;;
3054;SDS011;1537;52.018;8.542;2023-04-25T02:12:09;9.70;;;6.30;;
3054;SDS011;1537;52.018;8.542;2023-04-25T02:16:00;12.23;;;5.93;;
3054;SDS011;1537;52.018;8.542;2023-04-25T02:19:25;8.60;;;5.00;;
3054;SDS011;1537;52.018;8.542;2023-04-25T02:22:49;7.97;;;4.03;;
3054;SDS011;1537;52.018;8.542;2023-04-25T02:26:12;7.67;;;4.60;;
3054;SDS011;1537;52.018;8.542;2023-04-25T02:29:36;8.60;;;4.90;;
3054;SDS011;1537;52.018;8.542;2023-04-25T02:33:01;15.03;;;5.77;;
3054;SDS011;1537;52.018;8.542;2023-04-25T02:36:25;11.70;;;4.70;;
3054;SDS011;1537;52.018;8.542;2023-04-25T02:39:49;10.70;;;4.17;;
3054;SDS011;1537;52.018;8.542;2023-04-25T02:43:13;8.97;;;4.33;;
3054;SDS011;1537;52.018;8.542;2023-04-25T02:46:38;18.40;;;4.87;;
3054;SDS011;1537;52.018;8.542;2023-04-25T02:50:04;10.23;;;4.30;;
3054;SDS011;1537;52.018;8.542;2023-04-25T02:53:29;10.60;;;5.03;;
3054;SDS011;1537;52.018;8.542;2023-04-25T02:56:53;13.13;;;5.40;;
3054;SDS011;1537;52.018;8.542;2023-04-25T03:00:21;15.87;;;4.90;;
3054;SDS011;1537;52.018;8.542;2023-04-25T03:03:45;13.43;;;4.47;;
3054;SDS011;1537;52.018;8.542;2023-04-25T03:07:11;11.43;;;4.73;;
3054;SDS011;1537;52.018;8.542;2023-04-25T03:10:35;14.23;;;5.03;;
3054;SDS011;1537;52.018;8.542;2023-04-25T03:14:02;21.13;;;6.40;;
3054;SDS011;1537;52.018;8.542;2023-04-25T03:17:26;12.77;;;5.20;;
3054;SDS011;1537;52.018;8.542;2023-04-25T03:20:50;26.37;;;5.83;;
3054;SDS011;1537;52.018;8.542;2023-04-25T03:24:15;18.90;;;6.10;;
3054;SDS011;1537;52.018;8.542;2023-04-25T03:27:39;16.00;;;6.57;;
3054;SDS011;1537;52.018;8.542;2023-04-25T03:31:03;19.93;;;6.00;;
3054;SDS011;1537;52.018;8.542;2023-04-25T03:34:27;16.00;;;6.27;;
3054;SDS011;1537;52.018;8.542;2023-04-25T03:37:51;15.30;;;6.70;;
3054;SDS011;1537;52.018;8.542;2023-04-25T03:41:22;21.33;;;6.60;;
3054;SDS011;1537;52.018;8.542;2023-04-25T03:44:50;15.90;;;5.40;;
3054;SDS011;1537;52.018;8.542;2023-04-25T03:48:15;12.93;;;5.97;;
3054;SDS011;1537;52.018;8.542;2023-04-25T03:51:39;16.53;;;6.70;;
3054;SDS011;1537;52.018;8.542;2023-04-25T03:55:03;17.00;;;5.93;;
3054;SDS011;1537;52.018;8.542;2023-04-25T03:58:29;18.27;;;6.27;;
3054;SDS011;1537;52.018;8.542;2023-04-25T04:01:53;16.90;;;5.57;;
3054;SDS011;1537;52.018;8.542;2023-04-25T04:05:17;16.00;;;5.03;;
3054;SDS011;1537;52.018;8.542;2023-04-25T04:08:48;18.10;;;5.50;;
3054;SDS011;1537;52.018;8.542;2023-04-25T04:12:12;14.60;;;6.37;;
3054;SDS011;1537;52.018;8.542;2023-04-25T04:15:38;18.90;;;6.37;;
3054;SDS011;1537;52.018;8.542;2023-04-25T04:19:01;16.73;;;6.20;;
3054;SDS011;1537;52.018;8.542;2023-04-25T04:22:26;19.30;;;5.83;;
3054;SDS011;1537;52.018;8.542;2023-04-25T04:25:54;18.30;;;6.37;;
3054;SDS011;1537;52.018;8.542;2023-04-25T04:29:39;13.87;;;6.83;;
3054;SDS011;1537;52.018;8.542;2023-04-25T04:33:28;21.23;;;7.00;;
3054;SDS011;1537;52.018;8.542;2023-04-25T04:36:56;20.97;;;7.60;;
3054;SDS011;1537;52.018;8.542;2023-04-25T04:40:20;18.37;;;6.00;;
3054;SDS011;1537;52.018;8.542;2023-04-25T04:44:01;11.17;;;5.47;;
3054;SDS011;1537;52.018;8.542;2023-04-25T04:47:40;18.27;;;5.80;;
3054;SDS011;1537;52.018;8.542;2023-04-25T04:51:32;23.47;;;6.77;;
3054;SDS011;1537;52.018;8.542;2023-04-25T04:55:07;20.77;;;6.00;;
3054;SDS011;1537;52.018;8.542;2023-04-25T04:58:45;15.83;;;6.40;;
3054;SDS011;1537;52.018;8.542;2023-04-25T05:02:29;12.50;;;6.97;;
3054;SDS011;1537;52.018;8.542;2023-04-25T05:06:18;12.30;;;6.43;;
3054;SDS011;1537;52.018;8.542;2023-04-25T05:10:03;18.27;;;7.10;;
3054;SDS011;1537;52.018;8.542;2023-04-25T05:13:50;13.70;;;7.40;;
3054;SDS011;1537;52.018;8.542;2023-04-25T05:17:41;34.23;;;7.57;;
3054;SDS011;1537;52.018;8.542;2023-04-25T05:21:20;16.60;;;8.73;;
3054;SDS011;1537;52.018;8.542;2023-04-25T05:25:07;17.07;;;8.57;;
3054;SDS011;1537;52.018;8.542;2023-04-25T05:28:45;15.50;;;8.33;;
3054;SDS011;1537;52.018;8.542;2023-04-25T05:32:27;16.40;;;7.40;;
3054;SDS011;1537;52.018;8.542;2023-04-25T05:35:51;25.60;;;8.43;;
3054;SDS011;1537;52.018;8.542;2023-04-25T05:39:15;21.00;;;6.90;;
3054;SDS011;1537;52.018;8.542;2023-04-25T05:42:59;16.60;;;7.30;;
3054;SDS011;1537;52.018;8.542;2023-04-25T05:46:58;14.60;;;7.30;;
3054;SDS011;1537;52.018;8.542;2023-04-25T05:50:37;13.20;;;7.07;;
3054;SDS011;1537;52.018;8.542;2023-04-25T05:54:35;13.87;;;7.23;;
3054;SDS011;1537;52.018;8.542;2023-04-25T05:58:00;15.00;;;6.90;;
3054;SDS011;1537;52.018;8.542;2023-04-25T06:01:24;19.20;;;7.53;;
3054;SDS011;1537;52.018;8.542;2023-04-25T06:04:49;19.70;;;6.40;;
3054;SDS011;1537;52.018;8.542;2023-04-25T06:08:13;14.70;;;7.23;;
3054;SDS011;1537;52.018;8.542;2023-04-25T06:11:37;14.30;;;6.87;;
3054;SDS011;1537;52.018;8.542;2023-04-25T06:15:02;19.43;;;6.80;;
3054;SDS011;1537;52.018;8.542;2023-04-25T06:18:45;13.90;;;6.90;;
3054;SDS011;1537;52.018;8.542;2023-04-25T06:22:09;17.87;;;7.57;;
3054;SDS011;1537;52.018;8.542;2023-04-25T06:25:35;22.20;;;7.87;;
3054;SDS011;1537;52.018;8.542;2023-04-25T06:28:59;17.23;;;6.60;;
3054;SDS011;1537;52.018;8.542;2023-04-25T06:32:24;15.40;;;5.50;;
3054;SDS011;1537;52.018;8.542;2023-04-25T06:35:50;22.93;;;8.07;;
3054;SDS011;1537;52.018;8.542;2023-04-25T06:39:18;17.30;;;6.37;;
3054;SDS011;1537;52.018;8.542;2023-04-25T06:42:45;14.97;;;6.53;;
3054;SDS011;1537;52.018;8.542;2023-04-25T06:46:44;32.13;;;9.17;;
3054;SDS011;1537;52.018;8.542;2023-04-25T06:50:10;19.60;;;7.50;;
3054;SDS011;1537;52.018;8.542;2023-04-25T06:53:34;9.90;;;6.13;;
3054;SDS011;1537;52.018;8.542;2023-04-25T06:57:01;11.87;;;5.90;;
3054;SDS011;1537;52.018;8.542;2023-04-25T07:00:26;18.80;;;7.73;;
3054;SDS011;1537;52.018;8.542;2023-04-25T07:03:50;19.23;;;6.77;;
3054;SDS011;1537;52.018;8.542;2023-04-25T07:07:16;29.93;;;7.13;;
3054;SDS011;1537;52.018;8.542;2023-04-25T07:10:47;15.00;;;6.90;;
3054;SDS011;1537;52.018;8.542;2023-04-25T07:14:11;15.03;;;6.90;;
3054;SDS011;1537;52.018;8.542;2023-04-25T07:17:34;21.77;;;7.87;;
3054;SDS011;1537;52.018;8.542;2023-04-25T07:20:58;15.60;;;6.00;;
3054;SDS011;1537;52.018;8.542;2023-04-25T07:24:24;14.40;;;6.40;;
3054;SDS011;1537;52.018;8.542;2023-04-25T07:27:50;14.37;;;6.47;;
3054;SDS011;1537;52.018;8.542;2023-04-25T07:31:15;14.67;;;5.70;;
3054;SDS011;1537;52.018;8.542;2023-04-25T07:34:40;25.80;;;7.10;;
3054;SDS011;1537;52.018;8.542;2023-04-25T07:38:03;21.50;;;6.43;;
3054;SDS011;1537;52.018;8.542;2023-04-25T07:41:29;13.70;;;5.70;;
3054;SDS011;1537;52.018;8.542;2023-04-25T07:44:54;15.87;;;6.47;;
3054;SDS011;1537;52.018;8.542;2023-04-25T07:48:17;20.97;;;7.17;;
3054;SDS011;1537;52.018;8.542;2023-04-25T07:51:42;17.67;;;5.60;;
3054;SDS011;1537;52.018;8.542;2023-04-25T07:55:09;16.93;;;5.00;;
3054;SDS011;1537;52.018;8.542;2023-04-25T07:58:44;15.00;;;5.43;;
3054;SDS011;1537;52.018;8.542;2023-04-25T08:02:10;14.93;;;6.20;;
3054;SDS011;1537;52.018;8.542;2023-04-25T08:05:34;13.70;;;6.30;;
3054;SDS011;1537;52.018;8.542;2023-04-25T08:09:00;23.47;;;6.87;;
3054;SDS011;1537;52.018;8.542;2023-04-25T08:12:31;15.63;;;6.47;;
3054;SDS011;1537;52.018;8.542;2023-04-25T08:15:56;17.60;;;5.43;;
3054;SDS011;1537;52.018;8.542;2023-04-25T08:19:20;19.90;;;5.83;;
3054;SDS011;1537;52.018;8.542;2023-04-25T08:22:44;11.63;;;4.30;;
3054;SDS011;1537;52.018;8.542;2023-04-25T08:26:21;18.33;;;6.30;;
3054;SDS011;1537;52.018;8.542;2023-04-25T08:29:45;23.73;;;5.40;;
3054;SDS011;1537;52.018;8.542;2023-04-25T08:33:10;11.73;;;4.80;;
3054;SDS011;1537;52.018;8.542;2023-04-25T08:36:40;15.80;;;4.47;;
3054;SDS011;1537;52.018;8.542;2023-04-25T08:40:22;17.40;;;5.23;;
3054;SDS011;1537;52.018;8.542;2023-04-25T08:43:56;10.40;;;5.20;;
3054;SDS011;1537;52.018;8.542;2023-04-25T08:47:22;8.60;;;5.03;;
3054;SDS011;1537;52.018;8.542;2023-04-25T08:50:53;11.70;;;5.07;;
3054;SDS011;1537;52.018;8.542;2023-04-25T08:54:18;12.63;;;5.10;;
3054;SDS011;1537;52.018;8.542;2023-04-25T08:57:57;14.60;;;4.47;;
3054;SDS011;1537;52.018;8.542;2023-04-25T09:01:23;11.70;;;4.23;;
3054;SDS011;1537;52.018;8.542;2023-04-25T09:04:51;11.67;;;4.50;;
3054;SDS011;1537;52.018;8.542;2023-04-25T09:08:19;9.67;;;4.10;;
3054;SDS011;1537;52.018;8.542;2023-04-25T09:11:43;11.87;;;4.40;;
3054;SDS011;1537;52.018;8.542;2023-04-25T09:15:09;11.53;;;4.37;;
3054;SDS011;1537;52.018;8.542;2023-04-25T09:18:58;13.73;;;4.80;;
3054;SDS011;1537;52.018;8.542;2023-04-25T09:22:22;11.80;;;4.30;;
3054;SDS011;1537;52.018;8.542;2023-04-25T09:25:48;11.30;;;4.00;;
3054;SDS011;1537;52.018;8.542;2023-04-25T09:29:12;11.10;;;4.70;;
3054;SDS011;1537;52.018;8.542;2023-04-25T09:32:36;11.07;;;4.50;;
3054;SDS011;1537;52.018;8.542;2023-04-25T09:36:04;10.57;;;4.43;;
3054;SDS011;1537;52.018;8.542;2023-04-25T09:39:50;8.40;;;3.90;;
3054;SDS011;1537;52.018;8.542;2023-04-25T09:43:20;21.63;;;5.40;;
3054;SDS011;1537;52.018;8.542;2023-04-25T09:46:49;11.17;;;4.87;;
3054;SDS011;1537;52.018;8.542;2023-04-25T09:50:17;9.50;;;4.00;;
3054;SDS011;1537;52.018;8.542;2023-04-25T09:53:47;8.23;;;4.80;;
3054;SDS011;1537;52.018;8.542;2023-04-25T09:57:36;12.87;;;4.00;;
3054;SDS011;1537;52.018;8.542;2023-04-25T10:01:03;15.10;;;4.80;;
3054;SDS011;1537;52.018;8.542;2023-04-25T10:04:37;11.70;;;4.53;;
3054;SDS011;1537;52.018;8.542;2023-04-25T10:08:10;19.93;;;4.70;;
3054;SDS011;1537;52.018;8.542;2023-04-25T10:11:36;19.77;;;5.20;;
3054;SDS011;1537;52.018;8.542;2023-04-25T10:15:01;17.63;;;4.90;;
3054;SDS011;1537;52.018;8.542;2023-04-25T10:18:28;15.10;;;4.77;;
3054;SDS011;1537;52.018;8.542;2023-04-25T10:21:54;11.93;;;3.90;;
3054;SDS011;1537;52.018;8.542;2023-04-25T10:25:25;10.93;;;4.03;;
3054;SDS011;1537;52.018;8.542;2023-04-25T10:28:55;7.47;;;3.93;;
3054;SDS011;1537;52.018;8.542;2023-04-25T10:32:19;12.83;;;3.90;;
3054;SDS011;1537;52.018;8.542;2023-04-25T10:35:45;8.30;;;4.30;;
3054;SDS011;1537;52.018;8.542;2023-04-25T10:39:08;10.97;;;3.83;;
3054;SDS011;1537;52.018;8.542;2023-04-25T10:42:32;12.90;;;5.30;;
3054;SDS011;1537;52.018;8.542;2023-04-25T10:45:56;12.73;;;3.77;;
3054;SDS011;1537;52.018;8.542;2023-04-25T10:49:28;14.47;;;4.13;;
3054;SDS011;1537;52.018;8.542;2023-04-25T10:52:54;9.80;;;4.27;;
3054;SDS011;1537;52.018;8.542;2023-04-25T10:56:18;7.43;;;4.20;;
3054;SDS011;1537;52.018;8.542;2023-04-25T10:59:44;11.20;;;3.60;;
3054;SDS011;1537;52.018;8.542;2023-04-25T11:03:07;8.00;;;4.43;;
3054;SDS011;1537;52.018;8.542;2023-04-25T11:06:34;8.80;;;3.53;;
3054;SDS011;1537;52.018;8.542;2023-04-25T11:10:09;9.80;;;3.90;;
3054;SDS011;1537;52.018;8.542;2023-04-25T11:13:33;7.73;;;3.57;;
3054;SDS011;1537;52.018;8.542;2023-04-25T11:16:58;8.07;;;3.80;;
3054;SDS011;1537;52.018;8.542;2023-04-25T11:20:24;8.20;;;3.93;;
3054;SDS011;1537;52.018;8.542;2023-04-25T11:23:50;10.33;;;4.70;;
3054;SDS011;1537;52.018;8.542;2023-04-25T11:27:16;17.13;;;4.67;;
3054;SDS011;1537;52.018;8.542;2023-04-25T11:30:40;24.80;;;5.13;;
3054;SDS011;1537;52.018;8.542;2023-04-25T11:34:12;7.67;;;3.73;;
3054;SDS011;1537;52.018;8.542;2023-04-25T11:37:40;9.43;;;3.33;;
3054;SDS011;1537;52.018;8.542;2023-04-25T11:41:04;10.17;;;3.23;;
3054;SDS011;1537;52.018;8.542;2023-04-25T11:44:29;9.63;;;3.60;;
3054;SDS011;1537;52.018;8.542;2023-04-25T11:47:53;13.80;;;3.40;;
3054;SDS011;1537;52.018;8.542;2023-04-25T11:51:17;16.50;;;3.63;;
3054;SDS011;1537;52.018;8.542;2023-04-25T11:54:40;9.40;;;3.90;;
3054;SDS011;1537;52.018;8.542;2023-04-25T11:58:07;8.70;;;3.57;;
3054;SDS011;1537;52.018;8.542;2023-04-25T12:01:32;8.50;;;3.10;;
3054;SDS011;1537;52.018;8.542;2023-04-25T12:04:59;10.67;;;4.10;;
3054;SDS011;1537;52.018;8.542;2023-04-25T12:12:26;13.97;;;3.70;;
3054;SDS011;1537;52.018;8.542;2023-04-25T12:15:54;13.90;;;3.50;;
3054;SDS011;1537;52.018;8.542;2023-04-25T12:19:20;19.37;;;3.80;;
3054;SDS011;1537;52.018;8.542;2023-04-25T12:22:44;13.43;;;3.17;;
3054;SDS011;1537;52.018;8.542;2023-04-25T12:26:09;10.57;;;2.67;;
3054;SDS011;1537;52.018;8.542;2023-04-25T12:29:33;7.07;;;3.20;;
3054;SDS011;1537;52.018;8.542;2023-04-25T12:33:00;21.27;;;4.13;;
3054;SDS011;1537;52.018;8.542;2023-04-25T12:36:25;12.43;;;3.40;;
3054;SDS011;1537;52.018;8.542;2023-04-25T12:39:49;9.50;;;3.50;;
3054;SDS011;1537;52.018;8.542;2023-04-25T12:43:13;15.57;;;4.10;;
3054;SDS011;1537;52.018;8.542;2023-04-25T12:46:36;11.40;;;3.10;;
3054;SDS011;1537;52.018;8.542;2023-04-25T12:50:00;5.93;;;2.50;;
3054;SDS011;1537;52.018;8.542;2023-04-25T12:53:25;8.67;;;3.07;;
3054;SDS011;1537;52.018;8.542;2023-04-25T12:56:48;8.93;;;3.00;;
3054;SDS011;1537;52.018;8.542;2023-04-25T13:00:13;8.37;;;3.20;;
3054;SDS011;1537;52.018;8.542;2023-04-25T13:03:40;20.23;;;5.63;;
3054;SDS011;1537;52.018;8.542;2023-04-25T13:07:04;8.07;;;2.77;;
3054;SDS011;1537;52.018;8.542;2023-04-25T13:10:29;12.20;;;3.90;;
3054;SDS011;1537;52.018;8.542;2023-04-25T13:13:53;8.37;;;3.23;;
3054;SDS011;1537;52.018;8.542;2023-04-25T13:17:16;9.03;;;3.50;;
3054;SDS011;1537;52.018;8.542;2023-04-25T13:20:40;9.80;;;3.00;;
3054;SDS011;1537;52.018;8.542;2023-04-25T13:24:04;9.53;;;2.40;;
3054;SDS011;1537;52.018;8.542;2023-04-25T13:27:29;6.00;;;2.17;;
3054;SDS011;1537;52.018;8.542;2023-04-25T13:30:54;6.10;;;2.87;;
3054;SDS011;1537;52.018;8.542;2023-04-25T13:34:17;7.03;;;2.50;;
3054;SDS011;1537;52.018;8.542;2023-04-25T13:37:41;8.97;;;2.40;;
3054;SDS011;1537;52.018;8.542;2023-04-25T13:41:05;8.33;;;3.10;;
3054;SDS011;1537;52.018;8.542;2023-04-25T13:44:30;5.73;;;2.80;;
3054;SDS011;1537;52.018;8.542;2023-04-25T13:47:54;6.47;;;2.70;;
3054;SDS011;1537;52.018;8.542;2023-04-25T13:51:18;4.90;;;2.10;;
3054;SDS011;1537;52.018;8.542;2023-04-25T13:54:42;7.23;;;3.20;;
3054;SDS011;1537;52.018;8.542;2023-04-25T13:58:06;5.87;;;2.37;;
3054;SDS011;1537;52.018;8.542;2023-04-25T14:01:32;7.50;;;2.20;;
3054;SDS011;1537;52.018;8.542;2023-04-25T14:04:57;8.60;;;2.70;;
3054;SDS011;1537;52.018;8.542;2023-04-25T14:08:21;14.73;;;3.50;;
3054;SDS011;1537;52.018;8.542;2023-04-25T14:11:45;15.23;;;3.10;;
3054;SDS011;1537;52.018;8.542;2023-04-25T14:15:09;5.80;;;2.43;;
3054;SDS011;1537;52.018;8.542;2023-04-25T14:18:34;12.10;;;3.10;;
3054;SDS011;1537;52.018;8.542;2023-04-25T14:21:58;8.60;;;5.10;;
3054;SDS011;1537;52.018;8.542;2023-04-25T14:25:22;7.37;;;3.40;;
3054;SDS011;1537;52.018;8.542;2023-04-25T14:28:46;7.83;;;3.00;;
3054;SDS011;1537;52.018;8.542;2023-04-25T14:32:09;9.80;;;3.53;;
3054;SDS011;1537;52.018;8.542;2023-04-25T14:35:35;6.63;;;2.30;;
3054;SDS011;1537;52.018;8.542;2023-04-25T14:38:59;4.67;;;2.33;;
3054;SDS011;1537;52.018;8.542;2023-04-25T14:42:23;6.00;;;2.37;;
3054;SDS011;1537;52.018;8.542;2023-04-25T14:45:46;4.67;;;1.93;;
3054;SDS011;1537;52.018;8.542;2023-04-25T14:49:10;7.10;;;2.33;;
3054;SDS011;1537;52.018;8.542;2023-04-25T14:52:35;8.40;;;3.10;;
3054;SDS011;1537;52.018;8.542;2023-04-25T14:55:59;8.00;;;3.13;;
3054;SDS011;1537;52.018;8.542;2023-04-25T14:59:23;7.43;;;2.30;;
3054;SDS011;1537;52.018;8.542;2023-04-25T15:02:47;9.70;;;2.90;;
3054;SDS011;1537;52.018;8.542;2023-04-25T15:06:11;6.03;;;2.83;;
3054;SDS011;1537;52.018;8.542;2023-04-25T15:09:36;8.70;;;2.60;;
3054;SDS011;1537;52.018;8.542;2023-04-25T15:13:00;6.17;;;2.97;;
3054;SDS011;1537;52.018;8.542;2023-04-25T15:16:23;9.10;;;2.73;;
3054;SDS011;1537;52.018;8.542;2023-04-25T15:19:47;4.73;;;1.97;;
3054;SDS011;1537;52.018;8.542;2023-04-25T15:23:10;9.00;;;2.83;;
3054;SDS011;1537;52.018;8.542;2023-04-25T15:26:35;5.80;;;3.17;;
3054;SDS011;1537;52.018;8.542;2023-04-25T15:29:59;7.53;;;2.50;;
3054;SDS011;1537;52.018;8.542;2023-04-25T15:33:23;6.50;;;2.33;;
3054;SDS011;1537;52.018;8.542;2023-04-25T15:36:46;6.93;;;2.40;;
3054;SDS011;1537;52.018;8.542;2023-04-25T15:40:11;5.77;;;2.20;;
3054;SDS011;1537;52.018;8.542;2023-04-25T15:43:38;7.60;;;2.23;;
3054;SDS011;1537;52.018;8.542;2023-04-25T15:47:01;7.00;;;2.50;;
3054;SDS011;1537;52.018;8.542;2023-04-25T15:50:25;5.80;;;2.10;;
3054;SDS011;1537;52.018;8.542;2023-04-25T15:53:49;6.33;;;2.63;;
3054;SDS011;1537;52.018;8.542;2023-04-25T15:57:13;9.10;;;2.13;;
3054;SDS011;1537;52.018;8.542;2023-04-25T16:00:38;8.80;;;3.03;;
3054;SDS011;1537;52.018;8.542;2023-04-25T16:04:03;6.50;;;1.87;;
3054;SDS011;1537;52.018;8.542;2023-04-25T16:07:27;5.73;;;2.73;;
3054;SDS011;1537;52.018;8.542;2023-04-25T16:10:51;6.47;;;2.30;;
3054;SDS011;1537;52.018;8.542;2023-04-25T16:14:14;6.43;;;3.53;;
3054;SDS011;1537;52.018;8.542;2023-04-25T16:17:39;5.23;;;2.50;;
3054;SDS011;1537;52.018;8.542;2023-04-25T16:21:03;9.70;;;3.63;;
3054;SDS011;1537;52.018;8.542;2023-04-25T16:24:27;6.30;;;2.57;;
3054;SDS011;1537;52.018;8.542;2023-04-25T16:27:51;7.77;;;2.83;;
3054;SDS011;1537;52.018;8.542;2023-04-25T16:31:14;5.13;;;1.90;;
3054;SDS011;1537;52.018;8.542;2023-04-25T16:34:39;7.63;;;2.57;;
3054;SDS011;1537;52.018;8.542;2023-04-25T16:38:03;7.70;;;3.40;;
3054;SDS011;1537;52.018;8.542;2023-04-25T16:41:27;9.73;;;3.83;;
3054;SDS011;1537;52.018;8.542;2023-04-25T16:44:50;10.33;;;2.80;;
3054;SDS011;1537;52.018;8.542;2023-04-25T16:48:14;8.07;;;3.37;;
3054;SDS011;1537;52.018;8.542;2023-04-25T16:51:41;7.17;;;3.00;;
3054;SDS011;1537;52.018;8.542;2023-04-25T16:55:06;6.43;;;2.73;;
3054;SDS011;1537;52.018;8.542;2023-04-25T16:58:30;9.23;;;3.17;;
3054;SDS011;1537;52.018;8.542;2023-04-25T17:01:54;5.80;;;2.97;;
3054;SDS011;1537;52.018;8.542;2023-04-25T17:05:19;10.20;;;3.50;;
3054;SDS011;1537;52.018;8.542;2023-04-25T17:08:44;7.80;;;3.10;;
3054;SDS011;1537;52.018;8.542;2023-04-25T17:12:08;9.20;;;5.20;;
3054;SDS011;1537;52.018;8.542;2023-04-25T17:15:32;9.37;;;3.73;;
3054;SDS011;1537;52.018;8.542;2023-04-25T17:18:55;8.50;;;3.33;;
3054;SDS011;1537;52.018;8.542;2023-04-25T17:22:19;8.20;;;3.60;;
3054;SDS011;1537;52.018;8.542;2023-04-25T17:25:44;9.60;;;3.30;;
3054;SDS011;1537;52.018;8.542;2023-04-25T17:29:08;7.10;;;3.17;;
3054;SDS011;1537;52.018;8.542;2023-04-25T17:32:32;10.40;;;3.67;;
3054;SDS011;1537;52.018;8.542;2023-04-25T17:35:56;8.13;;;3.60;;
3054;SDS011;1537;52.018;8.542;2023-04-25T17:39:20;7.30;;;3.17;;
3054;SDS011;1537;52.018;8.542;2023-04-25T17:42:45;6.10;;;3.23;;
3054;SDS011;1537;52.018;8.542;2023-04-25T17:46:08;9.50;;;4.03;;
3054;SDS011;1537;52.018;8.542;2023-04-25T17:49:32;10.73;;;6.10;;
3054;SDS011;1537;52.018;8.542;2023-04-25T17:52:56;7.33;;;3.93;;
3054;SDS011;1537;52.018;8.542;2023-04-25T17:56:20;7.23;;;3.70;;
3054;SDS011;1537;52.018;8.542;2023-04-25T17:59:50;8.00;;;3.10;;
3054;SDS011;1537;52.018;8.542;2023-04-25T18:03:14;14.23;;;4.03;;
3054;SDS011;1537;52.018;8.542;2023-04-25T18:06:39;10.20;;;4.70;;
3054;SDS011;1537;52.018;8.542;2023-04-25T18:10:02;11.37;;;3.10;;
3054;SDS011;1537;52.018;8.542;2023-04-25T18:13:27;8.33;;;3.50;;
3054;SDS011;1537;52.018;8.542;2023-04-25T18:16:52;7.40;;;2.87;;
3054;SDS011;1537;52.018;8.542;2023-04-25T18:20:16;7.40;;;3.00;;
3054;SDS011;1537;52.018;8.542;2023-04-25T18:23:40;8.83;;;3.30;;
3054;SDS011;1537;52.018;8.542;2023-04-25T18:27:03;8.53;;;3.50;;
3054;SDS011;1537;52.018;8.542;2023-04-25T18:30:27;9.37;;;3.90;;
3054;SDS011;1537;52.018;8.542;2023-04-25T18:33:52;9.30;;;3.70;;
3054;SDS011;1537;52.018;8.542;2023-04-25T18:37:16;7.13;;;3.80;;
3054;SDS011;1537;52.018;8.542;2023-04-25T18:40:40;7.80;;;2.97;;
3054;SDS011;1537;52.018;8.542;2023-04-25T18:44:20;5.60;;;2.57;;
3054;SDS011;1537;52.018;8.542;2023-04-25T18:47:44;8.40;;;2.80;;
3054;SDS011;1537;52.018;8.542;2023-04-25T18:51:10;7.43;;;3.27;;
3054;SDS011;1537;52.018;8.542;2023-04-25T18:54:34;6.57;;;2.83;;
3054;SDS011;1537;52.018;8.542;2023-04-25T18:57:57;7.67;;;2.87;;
3054;SDS011;1537;52.018;8.542;2023-04-25T19:01:22;6.50;;;3.10;;
3054;SDS011;1537;52.018;8.542;2023-04-25T19:04:47;12.80;;;3.40;;
3054;SDS011;1537;52.018;8.542;2023-04-25T19:08:12;6.53;;;2.77;;
3054;SDS011;1537;52.018;8.542;2023-04-25T19:11:36;6.77;;;3.10;;
3054;SDS011;1537;52.018;8.542;2023-04-25T19:15:00;14.90;;;3.70;;
3054;SDS011;1537;52.018;8.542;2023-04-25T19:18:23;14.80;;;3.83;;
3054;SDS011;1537;52.018;8.542;2023-04-25T19:21:48;9.03;;;2.80;;
3054;SDS011;1537;52.018;8.542;2023-04-25T19:25:14;8.03;;;3.40;;
3054;SDS011;1537;52.018;8.542;2023-04-25T19:28:42;9.70;;;3.43;;
3054;SDS011;1537;52.018;8.542;2023-04-25T19:32:06;8.23;;;3.43;;
3054;SDS011;1537;52.018;8.542;2023-04-25T19:35:29;6.17;;;2.63;;
3054;SDS011;1537;52.018;8.542;2023-04-25T19:38:54;8.47;;;3.23;;
3054;SDS011;1537;52.018;8.542;2023-04-25T19:42:24;14.33;;;3.90;;
3054;SDS011;1537;52.018;8.542;2023-04-25T19:45:47;5.90;;;2.90;;
3054;SDS011;1537;52.018;8.542;2023-04-25T19:49:11;8.80;;;3.13;;
3054;SDS011;1537;52.018;8.542;2023-04-25T19:52:35;5.90;;;3.57;;
3054;SDS011;1537;52.018;8.542;2023-04-25T19:56:00;10.67;;;3.67;;
3054;SDS011;1537;52.018;8.542;2023-04-25T19:59:25;5.70;;;2.80;;
3054;SDS011;1537;52.018;8.542;2023-04-25T20:02:49;19.43;;;3.00;;
3054;SDS011;1537;52.018;8.542;2023-04-25T20:06:13;6.97;;;3.20;;
3054;SDS011;1537;52.018;8.542;2023-04-25T20:09:36;7.20;;;3.20;;
3054;SDS011;1537;52.018;8.542;2023-04-25T20:13:01;7.77;;;2.77;;
3054;SDS011;1537;52.018;8.542;2023-04-25T20:16:26;5.80;;;2.70;;
3054;SDS011;1537;52.018;8.542;2023-04-25T20:19:50;7.40;;;3.20;;
3054;SDS011;1537;52.018;8.542;2023-04-25T20:23:13;6.83;;;3.57;;
3054;SDS011;1537;52.018;8.542;2023-04-25T20:26:37;7.87;;;2.83;;
3054;SDS011;1537;52.018;8.542;2023-04-25T20:30:01;12.93;;;3.43;;
3054;SDS011;1537;52.018;8.542;2023-04-25T20:33:29;10.50;;;3.17;;
3054;SDS011;1537;52.018;8.542;2023-04-25T20:36:53;11.00;;;3.00;;
3054;SDS011;1537;52.018;8.542;2023-04-25T20:40:18;6.33;;;3.43;;
3054;SDS011;1537;52.018;8.542;2023-04-25T20:43:42;10.73;;;2.97;;
3054;SDS011;1537;52.018;8.542;2023-04-25T20:47:06;12.40;;;3.77;;
3054;SDS011;1537;52.018;8.542;2023-04-25T20:50:32;8.20;;;3.77;;
3054;SDS011;1537;52.018;8.542;2023-04-25T20:53:55;8.00;;;3.17;;
3054;SDS011;1537;52.018;8.542;2023-04-25T20:57:19;8.53;;;3.60;;
3054;SDS011;1537;52.018;8.542;2023-04-25T21:00:43;12.27;;;3.80;;
3054;SDS011;1537;52.018;8.542;2023-04-25T21:04:08;7.73;;;3.50;;
3054;SDS011;1537;52.018;8.542;2023-04-25T21:07:34;8.43;;;3.63;;
3054;SDS011;1537;52.018;8.542;2023-04-25T21:10:57;9.80;;;3.50;;
3054;SDS011;1537;52.018;8.542;2023-04-25T21:14:21;9.20;;;3.47;;
3054;SDS011;1537;52.018;8.542;2023-04-25T21:17:46;6.13;;;2.77;;